Accueil
METAR-TAF:

METAR-TAF

Aéroports :

Newquay Cornwall, Angleterre

Aéroport de Newquay Cornouailles

latitude: 50-26N, longitude: 005-00W, altitude: 119 m

Observation

Le bulletin a été fait il y a 28 minutes, à 16:20 UTC
Vent 22 kt de sud-est
Température 21°C
Humidité 73%
Pression 1012 hPa
Visibilité 10 km ou plus
Quelques nuages à une hauteur de 3500 ft

METAR: EGHQ 221620Z 13022KT 9999 FEW035 21/16 Q1012

Heure: 17:48 (16:48 UTC)

Prévision

Le bulletin a été fait il y a 2 heures et 39 minutes, à 14:09 UTC
Prévision valable du 22 à 15 UTC au 22 à 21 UTC
Vent 20 kt de sud-est
Visibilité 10 km ou plus
Quelques nuages à une hauteur de 2500 ft
Evoluant progressivement
du 22 à 15 UTC au 22 à 18 UTC
Vent 5 kt de sud/sud-ouest

TAF: EGHQ 221409Z 2215/2221 14020KT 9999 FEW025 BECMG 2215/2218 21005KT

Observations et prévisions météorologiques de plus de 4000 aéroports (messages METAR et TAF).

Les stations disponibles sont représentées par des disques jaunes et rouges sur la carte.

Passer la souris dessus pour voir le nom de la station.

Cliquer dessus pour voir les observations et prévisions météorologiques.

Pour changer de carte: cliquez sur les boutons verts avec une croix noire pour zoomer, sur le bouton vert avec un tiret pour effectuer un zoom arrière, ou sur les flèches vertes pour les cartes adjacentes.


METAR-TAF: